Time;durP1;ratioP1;P1;durP2;ratioP2;P2;SDS_P1;SDS_P2;PMS_P1;PMS_P2;Temp;Humidity;BMP_temperature;BMP_pressure;BME280_temperature;BME280_humidity;BME280_pressure;Samples;Min_cycle;Max_cycle;Signal;HPM_P1;HPM_P2
2024/01/04 00:00:25;;;;;;;0.47;0.20;;;7.50;99.90;;;;;;5019448;28;20037;-72
2024/01/04 00:02:51;;;;;;;2.00;0.20;;;7.50;99.90;;;;;;5041951;28;20047;-72
2024/01/04 00:05:17;;;;;;;0.43;0.30;;;7.40;99.90;;;;;;5027566;28;20181;-72
2024/01/04 00:07:43;;;;;;;0.38;0.25;;;7.40;99.90;;;;;;5047568;28;20048;-72
2024/01/04 00:10:09;;;;;;;0.55;0.10;;;7.40;99.90;;;;;;5015977;28;20041;-72
2024/01/04 00:12:35;;;;;;;0.45;0.10;;;7.40;99.90;;;;;;5037145;28;20032;-72
2024/01/04 00:15:03;;;;;;;0.38;0.10;;;7.40;99.90;;;;;;5038026;28;20074;-72
2024/01/04 00:17:29;;;;;;;0.57;0.25;;;7.40;99.90;;;;;;5015210;28;20044;-72
2024/01/04 00:19:55;;;;;;;0.20;0.15;;;7.40;99.90;;;;;;5040080;28;20174;-73
2024/01/04 00:22:21;;;;;;;1.65;0.45;;;7.40;99.90;;;;;;5022331;28;20119;-72
2024/01/04 00:24:46;;;;;;;1.05;0.30;;;7.40;99.90;;;;;;5039605;28;20119;-72
2024/01/04 00:27:12;;;;;;;0.20;0.10;;;7.40;99.90;;;;;;5023599;28;20043;-72
2024/01/04 00:29:38;;;;;;;0.28;0.10;;;7.30;99.90;;;;;;5036537;28;20482;-72
2024/01/04 00:32:04;;;;;;;0.73;0.28;;;7.30;99.90;;;;;;5040740;28;20499;-72
2024/01/04 00:34:29;;;;;;;0.40;0.25;;;7.20;99.90;;;;;;5033927;28;20041;-72
2024/01/04 00:36:57;;;;;;;0.82;0.38;;;7.20;99.90;;;;;;5020307;28;20040;-72
2024/01/04 00:39:24;;;;;;;0.38;0.20;;;7.20;99.90;;;;;;5041400;28;20043;-73
2024/01/04 00:41:51;;;;;;;0.28;0.17;;;7.10;99.90;;;;;;5038727;28;20040;-72
2024/01/04 00:44:17;;;;;;;0.30;0.17;;;7.20;99.90;;;;;;5041573;28;20098;-72
2024/01/04 00:46:43;;;;;;;0.57;0.30;;;7.10;99.90;;;;;;5040340;28;20033;-72
2024/01/04 00:49:08;;;;;;;0.10;0.10;;;7.10;99.90;;;;;;5040206;28;20053;-72
2024/01/04 00:51:34;;;;;;;1.08;0.32;;;7.10;99.90;;;;;;5026931;28;20386;-72
2024/01/04 00:54:00;;;;;;;1.40;0.35;;;7.10;99.90;;;;;;5024578;28;20037;-72
2024/01/04 00:56:32;;;;;;;0.22;0.13;;;7.10;99.90;;;;;;5042885;28;20040;-72
2024/01/04 00:58:57;;;;;;;0.45;0.10;;;7.10;99.90;;;;;;5024387;28;20037;-72
2024/01/04 01:01:23;;;;;;;1.63;0.30;;;7.00;99.90;;;;;;5029821;28;20067;-72
2024/01/04 01:03:48;;;;;;;1.65;0.55;;;7.00;99.90;;;;;;5030469;28;20043;-72
2024/01/04 01:06:14;;;;;;;0.35;0.28;;;7.00;99.90;;;;;;5027227;28;20111;-72
2024/01/04 01:08:40;;;;;;;0.57;0.20;;;7.00;99.90;;;;;;5031738;28;20542;-73
2024/01/04 01:11:05;;;;;;;0.47;0.22;;;6.90;99.90;;;;;;5045143;28;20186;-72
2024/01/04 01:13:31;;;;;;;1.45;0.10;;;6.90;99.90;;;;;;5039931;28;20029;-72
2024/01/04 01:15:57;;;;;;;0.43;0.20;;;6.90;99.90;;;;;;5039793;28;20041;-72
2024/01/04 01:18:22;;;;;;;0.63;0.30;;;6.80;99.90;;;;;;5018276;28;20430;-72
2024/01/04 01:20:48;;;;;;;0.60;0.20;;;6.80;99.90;;;;;;5019430;28;20074;-72
2024/01/04 01:23:13;;;;;;;0.57;0.20;;;6.80;99.90;;;;;;5022251;28;20041;-72
2024/01/04 01:25:39;;;;;;;0.40;0.28;;;6.80;99.90;;;;;;5041235;28;20039;-73
2024/01/04 01:28:05;;;;;;;0.75;0.13;;;6.70;99.90;;;;;;5021701;28;20072;-72
2024/01/04 01:30:31;;;;;;;0.57;0.30;;;6.80;99.90;;;;;;5042604;28;20043;-72
2024/01/04 01:32:56;;;;;;;0.32;0.20;;;6.70;99.90;;;;;;5036515;28;20493;-72
2024/01/04 01:35:22;;;;;;;0.75;0.30;;;6.70;99.90;;;;;;5018515;28;20041;-72
2024/01/04 01:37:48;;;;;;;0.20;0.10;;;6.80;99.90;;;;;;5043015;28;20521;-72
2024/01/04 01:40:13;;;;;;;0.70;0.22;;;6.70;99.90;;;;;;5023910;28;20028;-72
2024/01/04 01:42:39;;;;;;;0.15;0.00;;;6.70;99.90;;;;;;5025569;28;20056;-72
2024/01/04 01:45:05;;;;;;;1.88;0.20;;;6.70;99.90;;;;;;5016590;28;20040;-72
2024/01/04 01:47:31;;;;;;;0.63;0.10;;;6.70;99.90;;;;;;5031117;28;20036;-72
2024/01/04 01:49:58;;;;;;;9.43;0.38;;;6.70;99.90;;;;;;5017873;28;20541;-72
2024/01/04 01:52:23;;;;;;;0.65;0.20;;;6.70;99.90;;;;;;5038211;28;20036;-72
2024/01/04 01:54:51;;;;;;;0.77;0.50;;;6.70;99.90;;;;;;5038349;28;20051;-72
2024/01/04 01:57:17;;;;;;;0.20;0.10;;;6.70;99.90;;;;;;5038843;28;20040;-72
2024/01/04 01:59:43;;;;;;;0.70;0.20;;;6.70;99.90;;;;;;5040911;28;20087;-72
2024/01/04 02:02:10;;;;;;;0.10;0.10;;;6.70;99.90;;;;;;5032403;28;20048;-72
2024/01/04 02:04:35;;;;;;;1.23;0.38;;;6.60;99.90;;;;;;5044159;28;20123;-72
2024/01/04 02:07:01;;;;;;;0.13;0.10;;;6.60;99.90;;;;;;5035826;28;20430;-72
2024/01/04 02:09:27;;;;;;;1.55;0.20;;;6.50;99.90;;;;;;5037367;28;20041;-72
2024/01/04 02:12:04;;;;;;;0.75;0.17;;;6.50;99.90;;;;;;5036168;28;20079;-72
2024/01/04 02:14:30;;;;;;;0.38;0.20;;;6.40;99.90;;;;;;5022690;28;20087;-72
2024/01/04 02:16:55;;;;;;;0.00;0.00;;;6.40;99.90;;;;;;5027457;28;20036;-72
2024/01/04 02:19:22;;;;;;;0.63;0.10;;;6.30;99.90;;;;;;5033462;28;20032;-72
2024/01/04 02:21:47;;;;;;;0.82;0.30;;;6.40;99.90;;;;;;5028784;28;20541;-72
2024/01/04 02:24:13;;;;;;;0.25;0.10;;;6.30;99.90;;;;;;5015292;28;20041;-72
2024/01/04 02:26:38;;;;;;;0.15;0.10;;;6.30;99.90;;;;;;5038027;28;20041;-72
2024/01/04 02:29:04;;;;;;;0.00;0.00;;;6.40;99.90;;;;;;5041095;28;20072;-72
2024/01/04 02:31:29;;;;;;;0.45;0.10;;;6.30;99.90;;;;;;5040364;28;20052;-72
2024/01/04 02:33:55;;;;;;;0.35;0.10;;;6.30;99.90;;;;;;5028759;28;20090;-72
2024/01/04 02:36:21;;;;;;;0.80;0.20;;;6.30;99.90;;;;;;5037723;28;20040;-72
2024/01/04 02:38:46;;;;;;;0.40;0.05;;;6.30;99.90;;;;;;5038518;28;20233;-72
2024/01/04 02:41:12;;;;;;;2.53;0.13;;;6.30;99.90;;;;;;5035886;28;20070;-72
2024/01/04 02:43:37;;;;;;;0.30;0.10;;;6.30;99.90;;;;;;5038856;28;20044;-72
2024/01/04 02:46:03;;;;;;;0.13;0.10;;;6.30;99.90;;;;;;5043259;28;20039;-72
2024/01/04 02:48:29;;;;;;;0.10;0.10;;;6.30;99.90;;;;;;5029772;28;20167;-72
2024/01/04 02:50:54;;;;;;;1.17;0.30;;;6.30;99.90;;;;;;5021931;28;20041;-72
2024/01/04 02:53:20;;;;;;;0.03;0.00;;;6.20;99.90;;;;;;5023896;28;20076;-72
2024/01/04 02:55:45;;;;;;;0.03;0.00;;;6.30;99.90;;;;;;5031751;28;20474;-72
2024/01/04 02:58:11;;;;;;;3.75;0.30;;;6.20;99.90;;;;;;5038861;28;20299;-72
2024/01/04 03:00:37;;;;;;;2.95;0.08;;;6.30;99.90;;;;;;5036202;28;20037;-72
2024/01/04 03:03:02;;;;;;;0.10;0.10;;;6.20;99.90;;;;;;5017723;28;20068;-72
2024/01/04 03:05:28;;;;;;;0.40;0.03;;;6.20;99.90;;;;;;5031458;28;20131;-72
2024/01/04 03:07:54;;;;;;;0.00;0.00;;;6.30;99.90;;;;;;5037104;28;20044;-72
2024/01/04 03:10:19;;;;;;;0.38;0.10;;;6.30;99.90;;;;;;5034697;28;20056;-72
2024/01/04 03:12:45;;;;;;;0.00;0.00;;;6.20;99.90;;;;;;5037580;28;20041;-72
2024/01/04 03:15:12;;;;;;;0.38;0.32;;;6.20;99.90;;;;;;5038762;28;20032;-72
2024/01/04 03:17:37;;;;;;;0.75;0.13;;;6.20;99.90;;;;;;5023143;28;20040;-72
2024/01/04 03:20:04;;;;;;;0.10;0.08;;;6.20;99.90;;;;;;5045297;28;20077;-72
2024/01/04 03:22:30;;;;;;;0.70;0.45;;;6.20;99.90;;;;;;5017418;28;20501;-72
2024/01/04 03:24:55;;;;;;;0.20;0.00;;;6.10;99.90;;;;;;5033469;28;20054;-72
2024/01/04 03:27:21;;;;;;;0.10;0.10;;;6.10;99.90;;;;;;5035617;28;20051;-72
2024/01/04 03:29:46;;;;;;;0.00;0.00;;;6.10;99.90;;;;;;5039292;28;20036;-72
2024/01/04 03:32:12;;;;;;;0.10;0.00;;;6.10;99.90;;;;;;5038756;28;20544;-72
2024/01/04 03:34:38;;;;;;;0.10;0.10;;;6.00;99.90;;;;;;5034400;28;20135;-72
2024/01/04 03:37:03;;;;;;;0.52;0.30;;;6.00;99.90;;;;;;5041930;28;20271;-72
2024/01/04 03:39:29;;;;;;;0.10;0.00;;;6.00;99.90;;;;;;5039360;28;20634;-72
2024/01/04 03:41:55;;;;;;;0.15;0.10;;;6.00;99.90;;;;;;5032624;28;20033;-72
2024/01/04 03:44:20;;;;;;;0.10;0.10;;;6.00;99.90;;;;;;5032292;28;20045;-72
2024/01/04 03:46:46;;;;;;;0.20;0.13;;;6.00;99.90;;;;;;5041062;28;20048;-72
2024/01/04 03:49:11;;;;;;;0.00;0.00;;;6.00;99.90;;;;;;5027241;28;20131;-72
2024/01/04 03:51:37;;;;;;;0.00;0.00;;;5.90;99.90;;;;;;5036309;28;20417;-72
2024/01/04 03:54:03;;;;;;;0.10;0.10;;;5.90;99.90;;;;;;5032868;28;20479;-72
2024/01/04 03:56:28;;;;;;;0.32;0.30;;;5.90;99.90;;;;;;5037518;28;20470;-72
2024/01/04 03:58:54;;;;;;;0.10;0.10;;;5.90;99.90;;;;;;5019650;28;20538;-72
2024/01/04 04:01:19;;;;;;;0.00;0.00;;;5.80;99.90;;;;;;5033167;28;20037;-72
2024/01/04 04:03:45;;;;;;;0.00;0.00;;;5.70;99.90;;;;;;5021261;28;20045;-72
2024/01/04 04:06:11;;;;;;;0.00;0.00;;;5.70;99.90;;;;;;5037030;28;20086;-72
2024/01/04 04:08:36;;;;;;;0.28;0.28;;;5.70;99.90;;;;;;5018296;28;20109;-72
2024/01/04 04:11:02;;;;;;;1.48;0.10;;;5.70;99.90;;;;;;5035209;28;20048;-72
2024/01/04 04:13:28;;;;;;;0.45;0.13;;;5.60;99.90;;;;;;5028069;28;20033;-72
2024/01/04 04:15:53;;;;;;;0.35;0.10;;;5.60;99.90;;;;;;5023055;28;20505;-72
2024/01/04 04:18:19;;;;;;;0.45;0.20;;;5.60;99.90;;;;;;5041095;28;20040;-73
2024/01/04 04:20:44;;;;;;;0.55;0.20;;;5.60;99.90;;;;;;5033148;28;20119;-72
2024/01/04 04:23:10;;;;;;;0.45;0.20;;;5.60;99.90;;;;;;5036622;28;20047;-72
2024/01/04 04:25:36;;;;;;;0.10;0.00;;;5.60;99.90;;;;;;5032308;28;20045;-72
2024/01/04 04:28:02;;;;;;;1.23;0.30;;;5.60;99.90;;;;;;5036612;28;20044;-72
2024/01/04 04:30:29;;;;;;;0.90;0.30;;;5.60;99.90;;;;;;5023214;28;20405;-72
2024/01/04 04:32:55;;;;;;;0.00;0.00;;;5.60;99.90;;;;;;5039060;28;20119;-72
2024/01/04 04:35:20;;;;;;;0.00;0.00;;;5.60;99.90;;;;;;5040081;28;20128;-72
2024/01/04 04:37:46;;;;;;;0.10;0.10;;;5.60;99.90;;;;;;5037627;28;20055;-72
2024/01/04 04:40:12;;;;;;;0.40;0.13;;;5.60;99.90;;;;;;5021062;28;20044;-72
2024/01/04 04:42:37;;;;;;;0.03;0.03;;;5.60;99.90;;;;;;5024921;28;20262;-72
2024/01/04 04:45:04;;;;;;;0.00;0.00;;;5.60;99.90;;;;;;5027835;28;20040;-72
2024/01/04 04:47:30;;;;;;;2.28;0.47;;;5.60;99.90;;;;;;5034845;28;21209;-72
2024/01/04 04:49:56;;;;;;;0.70;0.28;;;5.50;99.90;;;;;;5053305;28;20375;-72
2024/01/04 04:52:21;;;;;;;0.00;0.00;;;5.50;99.90;;;;;;5039922;28;20044;-72
2024/01/04 04:54:47;;;;;;;0.55;0.30;;;5.50;99.90;;;;;;5040321;28;20032;-72
2024/01/04 04:57:13;;;;;;;0.20;0.10;;;5.50;99.90;;;;;;5035933;28;20059;-72
2024/01/04 04:59:38;;;;;;;0.28;0.05;;;5.50;99.90;;;;;;5044864;28;20044;-72
2024/01/04 05:02:04;;;;;;;5.07;0.47;;;5.50;99.90;;;;;;5040192;28;20071;-72
2024/01/04 05:04:30;;;;;;;0.45;0.20;;;5.50;99.90;;;;;;5016441;28;20053;-72
2024/01/04 05:06:55;;;;;;;0.22;0.10;;;5.50;99.90;;;;;;5035778;28;20020;-72
2024/01/04 05:09:21;;;;;;;0.47;0.17;;;5.50;99.90;;;;;;5042079;28;20058;-72
2024/01/04 05:11:47;;;;;;;0.20;0.10;;;5.40;99.90;;;;;;5040647;28;20064;-72
2024/01/04 05:14:12;;;;;;;0.15;0.10;;;5.50;99.90;;;;;;5032114;28;20038;-72
2024/01/04 05:16:38;;;;;;;0.00;0.00;;;5.50;99.90;;;;;;5025933;28;20498;-72
2024/01/04 05:19:07;;;;;;;0.10;0.10;;;5.40;99.90;;;;;;5027911;28;20045;-72
2024/01/04 05:21:33;;;;;;;0.65;0.20;;;5.40;99.90;;;;;;5031363;28;20124;-72
2024/01/04 05:23:59;;;;;;;0.47;0.10;;;5.50;99.90;;;;;;5017737;28;20051;-72
2024/01/04 05:26:25;;;;;;;0.00;0.00;;;5.40;99.90;;;;;;5043205;28;20032;-72
2024/01/04 05:28:50;;;;;;;0.10;0.10;;;5.40;99.90;;;;;;5040082;28;20490;-72
2024/01/04 05:31:19;;;;;;;0.50;0.13;;;5.40;99.90;;;;;;5045256;28;20052;-72
2024/01/04 05:33:46;;;;;;;0.25;0.00;;;5.40;99.90;;;;;;5048428;28;20032;-72
2024/01/04 05:36:11;;;;;;;0.00;0.00;;;5.40;99.90;;;;;;5023889;28;20045;-72
2024/01/04 05:38:37;;;;;;;0.20;0.10;;;5.40;99.90;;;;;;5038561;28;20058;-72
2024/01/04 05:41:04;;;;;;;0.10;0.10;;;5.40;99.90;;;;;;5025469;28;20044;-72
2024/01/04 05:43:30;;;;;;;0.03;0.03;;;5.40;99.90;;;;;;5038775;28;20048;-72
2024/01/04 05:45:56;;;;;;;0.00;0.00;;;5.50;99.90;;;;;;5038187;28;20044;-72
2024/01/04 05:48:22;;;;;;;0.20;0.05;;;5.40;99.90;;;;;;5029754;28;20032;-72
2024/01/04 05:50:49;;;;;;;0.10;0.00;;;5.40;99.90;;;;;;5015356;28;20049;-72
2024/01/04 05:53:15;;;;;;;0.20;0.20;;;5.40;99.90;;;;;;5021780;28;20043;-72
2024/01/04 05:55:40;;;;;;;0.00;0.00;;;5.50;99.90;;;;;;5022776;28;20028;-72
2024/01/04 05:58:06;;;;;;;2.47;0.20;;;5.40;99.90;;;;;;5038226;28;20041;-72
2024/01/04 06:00:32;;;;;;;0.00;0.00;;;5.40;99.90;;;;;;5037841;28;20123;-72
2024/01/04 06:02:57;;;;;;;0.47;0.10;;;5.40;99.90;;;;;;5042702;28;20489;-72
2024/01/04 06:05:23;;;;;;;0.10;0.10;;;5.40;99.90;;;;;;5028408;28;20040;-72
2024/01/04 06:07:49;;;;;;;0.00;0.00;;;5.40;99.90;;;;;;5041992;28;20114;-72
2024/01/04 06:10:14;;;;;;;0.10;0.10;;;5.40;99.90;;;;;;5040142;28;20037;-72
2024/01/04 06:12:41;;;;;;;0.98;0.22;;;5.40;99.90;;;;;;5041120;28;20040;-72
2024/01/04 06:15:07;;;;;;;0.10;0.10;;;5.40;99.90;;;;;;5044648;28;20214;-72
2024/01/04 06:17:33;;;;;;;0.10;0.10;;;5.40;99.90;;;;;;5028718;28;20064;-72
2024/01/04 06:19:58;;;;;;;0.00;0.00;;;5.40;99.90;;;;;;5028803;28;20060;-72
2024/01/04 06:22:24;;;;;;;4.07;0.22;;;5.40;99.90;;;;;;5040423;28;20317;-72
2024/01/04 06:24:50;;;;;;;0.10;0.08;;;5.30;99.90;;;;;;5039898;28;20132;-72
2024/01/04 06:27:15;;;;;;;2.47;0.22;;;5.30;99.90;;;;;;5022413;28;20059;-72
2024/01/04 06:29:41;;;;;;;1.13;0.10;;;5.30;99.90;;;;;;5037739;28;20041;-72
2024/01/04 06:32:08;;;;;;;0.10;0.00;;;5.30;99.90;;;;;;5026587;28;20098;-72
2024/01/04 06:34:33;;;;;;;0.57;0.15;;;5.30;99.90;;;;;;5027440;28;20048;-72
2024/01/04 06:36:59;;;;;;;2.45;0.20;;;5.30;99.90;;;;;;5032513;28;20586;-72
2024/01/04 06:39:25;;;;;;;0.50;0.30;;;5.30;99.90;;;;;;5023394;28;20040;-72
2024/01/04 06:41:50;;;;;;;0.98;0.20;;;5.20;99.90;;;;;;5023160;28;20060;-72
2024/01/04 06:44:16;;;;;;;0.20;0.00;;;5.20;99.90;;;;;;5022797;28;20087;-72
2024/01/04 06:46:41;;;;;;;0.13;0.10;;;5.20;99.90;;;;;;5028178;28;20037;-72
2024/01/04 06:49:07;;;;;;;0.10;0.00;;;5.20;99.90;;;;;;5035874;28;20090;-72
2024/01/04 06:51:33;;;;;;;0.17;0.05;;;5.20;99.90;;;;;;5034898;28;20036;-72
2024/01/04 06:53:58;;;;;;;0.10;0.00;;;5.20;99.90;;;;;;5034372;28;20033;-72
2024/01/04 06:56:24;;;;;;;0.13;0.13;;;5.20;99.90;;;;;;5020982;28;20047;-72
2024/01/04 06:58:49;;;;;;;0.73;0.10;;;5.20;99.90;;;;;;5046152;28;20068;-72
2024/01/04 07:01:17;;;;;;;0.45;0.30;;;5.30;99.90;;;;;;5040337;28;20405;-72
2024/01/04 07:03:43;;;;;;;1.55;0.05;;;5.20;99.90;;;;;;5011606;28;20537;-72
2024/01/04 07:06:09;;;;;;;0.05;0.05;;;5.30;99.90;;;;;;5029148;28;20033;-72
2024/01/04 07:08:35;;;;;;;0.13;0.10;;;5.20;99.90;;;;;;5021175;28;20556;-72
2024/01/04 07:11:04;;;;;;;0.08;0.00;;;5.20;99.90;;;;;;5021286;28;20036;-72
2024/01/04 07:13:30;;;;;;;0.38;0.15;;;5.20;99.90;;;;;;5039347;28;20040;-72
2024/01/04 07:15:56;;;;;;;0.47;0.10;;;5.20;99.90;;;;;;5024916;28;20041;-72
2024/01/04 07:18:21;;;;;;;0.45;0.10;;;5.20;99.90;;;;;;5020495;28;20718;-72
2024/01/04 07:20:47;;;;;;;0.03;0.00;;;5.20;99.90;;;;;;5045777;28;20453;-72
2024/01/04 07:23:12;;;;;;;0.00;0.00;;;5.20;99.90;;;;;;5037169;28;20498;-72
2024/01/04 07:25:39;;;;;;;0.63;0.10;;;5.20;99.90;;;;;;5016839;28;20076;-72
2024/01/04 07:28:05;;;;;;;0.00;0.00;;;5.20;99.90;;;;;;5037907;28;20483;-72
2024/01/04 07:30:31;;;;;;;0.10;0.10;;;5.20;99.90;;;;;;5037560;28;20043;-72
2024/01/04 07:32:57;;;;;;;2.00;0.22;;;5.20;99.90;;;;;;5040611;28;20047;-72
2024/01/04 07:35:23;;;;;;;0.25;0.10;;;5.20;99.90;;;;;;5039987;28;20484;-72
2024/01/04 07:37:49;;;;;;;0.05;0.05;;;5.20;99.90;;;;;;5014453;28;20036;-72
2024/01/04 07:40:15;;;;;;;1.95;0.10;;;5.20;99.90;;;;;;5037281;28;20036;-72
2024/01/04 07:42:41;;;;;;;0.10;0.10;;;5.20;99.90;;;;;;5026704;28;20490;-73
2024/01/04 07:45:08;;;;;;;0.63;0.10;;;5.20;99.90;;;;;;5030300;28;20054;-72
2024/01/04 07:47:36;;;;;;;0.10;0.10;;;5.10;99.90;;;;;;5030781;28;20061;-72
2024/01/04 07:50:04;;;;;;;0.00;0.00;;;5.20;99.90;;;;;;5033810;28;20064;-72
2024/01/04 07:52:29;;;;;;;0.00;0.00;;;5.20;99.90;;;;;;5015780;28;20342;-73
2024/01/04 07:54:55;;;;;;;0.03;0.03;;;5.20;99.90;;;;;;5033029;28;20028;-72
2024/01/04 07:57:21;;;;;;;0.35;0.20;;;5.20;99.90;;;;;;5015998;28;20053;-72
2024/01/04 07:59:46;;;;;;;0.40;0.15;;;5.20;99.90;;;;;;5029440;28;20120;-71
2024/01/04 08:02:12;;;;;;;0.00;0.00;;;5.20;99.90;;;;;;5018394;28;20053;-72
2024/01/04 08:04:38;;;;;;;2.75;0.43;;;5.20;99.90;;;;;;5040122;28;20040;-72
2024/01/04 08:07:03;;;;;;;0.90;0.10;;;5.20;99.90;;;;;;5018258;28;20036;-73
2024/01/04 08:09:29;;;;;;;0.10;0.00;;;5.20;99.90;;;;;;5015665;28;20477;-72
2024/01/04 08:11:54;;;;;;;0.85;0.20;;;5.20;99.90;;;;;;5031958;28;20522;-72
2024/01/04 08:14:20;;;;;;;0.30;0.10;;;5.20;99.90;;;;;;5019877;28;20116;-73
2024/01/04 08:16:46;;;;;;;0.10;0.10;;;5.20;99.90;;;;;;5027928;28;20037;-72
2024/01/04 08:19:14;;;;;;;0.10;0.10;;;5.20;99.90;;;;;;5037922;28;20079;-73
2024/01/04 08:21:39;;;;;;;2.08;0.15;;;5.10;99.90;;;;;;5031326;28;20040;-72
2024/01/04 08:24:06;;;;;;;1.20;0.25;;;5.10;99.90;;;;;;5032424;28;20041;-72
2024/01/04 08:26:32;;;;;;;0.17;0.10;;;5.10;99.90;;;;;;5025732;28;20485;-72
2024/01/04 08:28:57;;;;;;;0.10;0.10;;;5.10;99.90;;;;;;5014632;28;20037;-73
2024/01/04 08:31:23;;;;;;;0.70;0.10;;;5.10;99.90;;;;;;5037973;28;20437;-72
2024/01/04 08:33:49;;;;;;;0.22;0.10;;;5.10;99.90;;;;;;5022572;28;20033;-72
2024/01/04 08:36:14;;;;;;;0.60;0.10;;;5.00;99.90;;;;;;5019478;28;20040;-72
2024/01/04 08:38:40;;;;;;;1.10;0.17;;;5.00;99.90;;;;;;5035482;28;20032;-72
2024/01/04 08:41:06;;;;;;;0.20;0.20;;;5.10;99.90;;;;;;5041927;28;20459;-73
2024/01/04 08:43:31;;;;;;;0.10;0.10;;;5.00;99.90;;;;;;5025599;28;20037;-72
2024/01/04 08:45:57;;;;;;;0.57;0.20;;;5.00;99.90;;;;;;5031621;28;20138;-73
2024/01/04 08:48:23;;;;;;;3.20;0.10;;;5.10;99.90;;;;;;5026705;28;20120;-73
2024/01/04 08:50:48;;;;;;;0.30;0.10;;;5.10;99.90;;;;;;5036679;28;20078;-73
2024/01/04 08:53:20;;;;;;;0.30;0.10;;;5.10;99.90;;;;;;5034543;28;20166;-73
2024/01/04 08:55:46;;;;;;;0.38;0.17;;;5.10;99.90;;;;;;5022018;28;20037;-73
2024/01/04 08:58:11;;;;;;;0.30;0.20;;;5.10;99.90;;;;;;5035148;28;20116;-73
2024/01/04 09:00:37;;;;;;;0.20;0.10;;;5.10;99.90;;;;;;5017016;28;20179;-73
2024/01/04 09:03:03;;;;;;;0.65;0.30;;;5.10;99.90;;;;;;5051232;28;20040;-73
2024/01/04 09:05:30;;;;;;;0.25;0.05;;;5.20;99.90;;;;;;5021672;28;20028;-73
2024/01/04 09:07:55;;;;;;;0.63;0.40;;;5.20;99.90;;;;;;5029465;28;20509;-73
2024/01/04 09:10:21;;;;;;;2.25;0.38;;;5.20;99.90;;;;;;5053233;28;20075;-73
2024/01/04 09:12:47;;;;;;;1.65;0.10;;;5.20;99.90;;;;;;5040112;28;20187;-73
2024/01/04 09:15:13;;;;;;;0.63;0.40;;;5.20;99.90;;;;;;5033652;28;20044;-73
2024/01/04 09:17:42;;;;;;;0.20;0.20;;;5.20;99.90;;;;;;5041157;28;20499;-73
2024/01/04 09:20:08;;;;;;;0.65;0.20;;;5.20;99.90;;;;;;5049251;28;20130;-73
2024/01/04 09:22:34;;;;;;;1.10;0.10;;;5.20;99.90;;;;;;5043964;28;20044;-73
2024/01/04 09:24:59;;;;;;;0.60;0.20;;;5.20;99.90;;;;;;5034069;28;20052;-73
2024/01/04 09:27:25;;;;;;;0.47;0.30;;;5.20;99.90;;;;;;5025882;28;20446;-73
2024/01/04 09:29:52;;;;;;;1.00;0.40;;;5.20;99.90;;;;;;5033299;28;20041;-73
2024/01/04 09:32:19;;;;;;;1.05;0.20;;;5.20;99.90;;;;;;5019122;28;20025;-73
2024/01/04 09:34:44;;;;;;;0.73;0.30;;;5.20;99.90;;;;;;5050610;28;20134;-73
2024/01/04 09:37:11;;;;;;;0.40;0.20;;;5.20;99.90;;;;;;5047015;28;20103;-73
2024/01/04 09:39:39;;;;;;;0.95;0.10;;;5.20;99.90;;;;;;5019999;28;20131;-73
2024/01/04 09:42:06;;;;;;;0.28;0.10;;;5.20;99.90;;;;;;5040157;28;20506;-73
2024/01/04 09:44:33;;;;;;;0.55;0.25;;;5.20;99.90;;;;;;5050458;28;20041;-73
2024/01/04 09:47:08;;;;;;;0.00;0.00;;;5.30;99.90;;;;;;5032312;28;20033;-73
2024/01/04 09:49:35;;;;;;;0.10;0.10;;;5.30;99.90;;;;;;5044735;28;20065;-73
2024/01/04 09:52:01;;;;;;;0.47;0.30;;;5.30;99.90;;;;;;5045219;28;20040;-73
2024/01/04 09:54:29;;;;;;;0.52;0.20;;;5.30;99.90;;;;;;5024402;28;20418;-73
2024/01/04 09:56:55;;;;;;;0.20;0.10;;;5.30;99.90;;;;;;5043396;28;20106;-73
2024/01/04 09:59:21;;;;;;;0.43;0.10;;;5.30;99.90;;;;;;5022891;28;20048;-75
2024/01/04 10:01:47;;;;;;;0.30;0.10;;;5.30;99.90;;;;;;5027138;28;20417;-72
2024/01/04 10:04:16;;;;;;;0.17;0.10;;;5.30;99.90;;;;;;5035373;28;20047;-72
2024/01/04 10:06:45;;;;;;;0.00;0.00;;;5.30;99.90;;;;;;5043535;28;20512;-72
2024/01/04 10:09:43;;;;;;;0.28;0.17;;;5.30;99.90;;;;;;5039665;28;20041;-72
2024/01/04 10:12:11;;;;;;;0.20;0.20;;;5.40;99.90;;;;;;5023515;28;20167;-73
2024/01/04 10:14:37;;;;;;;1.45;0.17;;;5.30;99.90;;;;;;5040375;28;20358;-72
2024/01/04 10:17:04;;;;;;;0.15;0.10;;;5.30;99.90;;;;;;5031134;28;20033;-73
2024/01/04 10:19:31;;;;;;;0.35;0.25;;;5.30;99.90;;;;;;5027769;28;20988;-72
2024/01/04 10:22:01;;;;;;;9.88;0.30;;;5.30;99.90;;;;;;5025544;28;20040;-73
2024/01/04 10:24:29;;;;;;;0.28;0.10;;;5.40;99.90;;;;;;5029823;28;20048;-73
2024/01/04 10:27:01;;;;;;;0.10;0.00;;;5.30;99.90;;;;;;5036603;28;20024;-72
2024/01/04 10:29:28;;;;;;;0.43;0.20;;;5.40;99.90;;;;;;5025901;28;20498;-73
2024/01/04 10:32:00;;;;;;;0.15;0.15;;;5.30;99.90;;;;;;5040203;28;20061;-73
2024/01/04 10:34:26;;;;;;;0.30;0.20;;;5.30;99.90;;;;;;5037921;28;20045;-80
2024/01/04 10:36:54;;;;;;;0.20;0.10;;;5.30;99.90;;;;;;5032607;28;20035;-80
2024/01/04 10:39:20;;;;;;;0.10;0.10;;;5.40;99.90;;;;;;5044595;28;20406;-80
2024/01/04 10:41:55;;;;;;;0.38;0.10;;;5.30;99.90;;;;;;5032682;28;22229;-79
2024/01/04 10:44:21;;;;;;;0.67;0.10;;;5.40;99.90;;;;;;5038217;28;20052;-79
2024/01/04 10:46:52;;;;;;;0.30;0.20;;;5.40;99.90;;;;;;5028698;28;20033;-80
2024/01/04 10:49:19;;;;;;;0.52;0.25;;;5.50;99.90;;;;;;5037799;28;20403;-80
2024/01/04 10:51:50;;;;;;;0.20;0.10;;;5.40;99.90;;;;;;5036371;28;20549;-80
2024/01/04 10:54:16;;;;;;;0.20;0.20;;;5.50;99.90;;;;;;5030147;28;20047;-80
2024/01/04 10:56:43;;;;;;;0.47;0.20;;;5.50;99.90;;;;;;5032006;28;20040;-80
2024/01/04 10:59:10;;;;;;;0.10;0.10;;;5.50;99.90;;;;;;5024111;28;20467;-80
2024/01/04 11:01:35;;;;;;;0.13;0.00;;;5.50;99.90;;;;;;5042593;28;20040;-79
2024/01/04 11:04:02;;;;;;;0.20;0.20;;;5.50;99.90;;;;;;5042291;28;20033;-79
2024/01/04 11:06:33;;;;;;;0.08;0.08;;;5.50;99.90;;;;;;5025881;28;20766;-79
2024/01/04 11:09:01;;;;;;;0.40;0.17;;;5.50;99.90;;;;;;5027250;28;20040;-80
2024/01/04 11:11:27;;;;;;;0.13;0.10;;;5.50;99.90;;;;;;5013474;28;20068;-80
2024/01/04 11:13:53;;;;;;;0.82;0.40;;;5.50;99.90;;;;;;5037223;28;20038;-80
2024/01/04 11:16:51;;;;;;;0.00;0.00;;;5.60;99.90;;;;;;5045647;28;20451;-79
2024/01/04 11:19:49;;;;;;;0.68;0.20;;;5.50;99.90;;;;;;5032667;28;20098;-79
2024/01/04 11:22:45;;;;;;;0.43;0.40;;;5.60;99.90;;;;;;5017992;28;20047;-79
2024/01/04 11:25:45;;;;;;;2.85;0.10;;;5.60;99.90;;;;;;5044151;28;20483;-79
2024/01/04 11:28:11;;;;;;;0.20;0.15;;;5.70;99.90;;;;;;5021241;28;20060;-79
2024/01/04 11:30:38;;;;;;;0.52;0.20;;;5.60;99.90;;;;;;5027407;28;20048;-79
2024/01/04 11:33:04;;;;;;;0.43;0.20;;;5.60;99.90;;;;;;5037835;28;20106;-78
2024/01/04 11:35:36;;;;;;;0.10;0.10;;;5.60;99.90;;;;;;5027580;28;20045;-79
2024/01/04 11:38:07;;;;;;;0.93;0.70;;;5.60;99.90;;;;;;5023596;28;20041;-79
2024/01/04 11:40:35;;;;;;;0.28;0.10;;;5.60;99.90;;;;;;5026857;28;20032;-78
2024/01/04 11:43:12;;;;;;;0.82;0.55;;;5.60;99.90;;;;;;5019451;28;20029;-79
2024/01/04 11:45:41;;;;;;;3.03;1.15;;;5.60;99.90;;;;;;5035449;28;20083;-79
2024/01/04 11:48:10;;;;;;;0.00;0.00;;;5.60;99.90;;;;;;5034640;28;20045;-79
2024/01/04 11:50:45;;;;;;;0.38;0.10;;;5.60;99.90;;;;;;5023064;28;20040;-79
2024/01/04 11:53:13;;;;;;;0.75;0.20;;;5.60;99.90;;;;;;5007990;28;20087;-79
2024/01/04 11:55:40;;;;;;;0.63;0.35;;;5.60;99.90;;;;;;5017388;28;20040;-79
2024/01/04 11:58:09;;;;;;;0.73;0.20;;;5.70;99.90;;;;;;5031425;28;20044;-79
2024/01/04 12:00:37;;;;;;;0.40;0.17;;;5.70;99.90;;;;;;5028066;28;20044;-79
2024/01/04 12:03:12;;;;;;;1.77;0.70;;;5.70;99.90;;;;;;5024109;28;20080;-79
2024/01/04 12:06:06;;;;;;;0.25;0.20;;;5.70;99.90;;;;;;5039954;28;20082;-79
2024/01/04 12:08:32;;;;;;;0.30;0.10;;;5.70;99.90;;;;;;5027278;28;20056;-78
2024/01/04 12:11:04;;;;;;;2.92;1.67;;;5.70;99.90;;;;;;5022887;28;20036;-79
2024/01/04 12:13:30;;;;;;;1.05;0.10;;;5.80;99.90;;;;;;5015837;28;21113;-80
2024/01/04 12:15:56;;;;;;;0.13;0.00;;;5.80;99.90;;;;;;5023031;28;20114;-80
2024/01/04 12:18:22;;;;;;;0.20;0.10;;;5.80;99.90;;;;;;5034452;28;20041;-80
2024/01/04 12:20:48;;;;;;;0.00;0.00;;;5.80;99.90;;;;;;5028669;28;20527;-73
2024/01/04 12:23:14;;;;;;;0.28;0.17;;;5.80;99.90;;;;;;5064572;28;20127;-73
2024/01/04 12:25:40;;;;;;;0.25;0.10;;;5.80;99.90;;;;;;5031441;28;20046;-73
2024/01/04 12:28:07;;;;;;;0.22;0.17;;;5.80;99.90;;;;;;5040737;28;20048;-74
2024/01/04 12:30:35;;;;;;;0.10;0.10;;;5.80;99.90;;;;;;5039549;28;20044;-73
2024/01/04 12:33:01;;;;;;;1.50;0.80;;;5.80;99.90;;;;;;5047956;28;20070;-73
2024/01/04 12:35:27;;;;;;;0.60;0.17;;;5.80;99.90;;;;;;5033167;28;20040;-73
2024/01/04 12:38:03;;;;;;;0.25;0.10;;;5.80;99.90;;;;;;5037842;28;20123;-74
2024/01/04 12:40:44;;;;;;;0.25;0.13;;;5.80;99.90;;;;;;5035127;28;20036;-73
2024/01/04 12:43:12;;;;;;;2.30;0.22;;;5.80;99.90;;;;;;5043212;28;20040;-73
2024/01/04 12:45:38;;;;;;;0.13;0.13;;;5.80;99.90;;;;;;5042944;28;20103;-73
2024/01/04 12:48:05;;;;;;;0.60;0.30;;;5.80;99.90;;;;;;5021147;28;20143;-73
2024/01/04 12:50:34;;;;;;;0.93;0.85;;;5.70;99.90;;;;;;5024239;28;20114;-73
2024/01/04 12:53:01;;;;;;;1.30;0.30;;;5.70;99.90;;;;;;5039720;28;20041;-73
2024/01/04 12:55:26;;;;;;;0.63;0.17;;;5.70;99.90;;;;;;5029495;28;20107;-74